Time;durP1;ratioP1;P1;durP2;ratioP2;P2;SDS_P1;SDS_P2;PMS_P1;PMS_P2;Temp;Humidity;BMP_temperature;BMP_pressure;BME280_temperature;BME280_humidity;BME280_pressure;Samples;Min_cycle;Max_cycle;Signal;HPM_P1;HPM_P2
2023/07/20 00:00:17;;;;;;;2.50;2.30;;;24.50;38.40;;;;;;20792;6817;120022;-80
2023/07/20 00:02:42;;;;;;;3.70;2.20;;;24.30;38.60;;;;;;20595;6817;312559;-79
2023/07/20 00:05:08;;;;;;;3.92;2.45;;;24.40;37.70;;;;;;20601;6817;340834;-79
2023/07/20 00:07:34;;;;;;;3.25;2.25;;;24.70;37.40;;;;;;20824;6817;116580;-79
2023/07/20 00:09:59;;;;;;;2.65;2.12;;;24.60;37.50;;;;;;20819;6817;117019;-79
2023/07/20 00:12:25;;;;;;;3.20;2.40;;;24.30;37.70;;;;;;20595;6817;282277;-79
2023/07/20 00:14:53;;;;;;;2.53;2.30;;;24.40;37.60;;;;;;20605;6817;297184;-79
2023/07/20 00:17:17;;;;;;;3.50;2.50;;;24.70;37.30;;;;;;20605;6817;309881;-79
2023/07/20 00:19:43;;;;;;;3.15;2.45;;;24.90;37.10;;;;;;20599;6817;310098;-79
2023/07/20 00:22:08;;;;;;;3.75;2.47;;;25.10;36.80;;;;;;20604;6817;306413;-79
2023/07/20 00:24:34;;;;;;;2.50;2.30;;;25.20;36.60;;;;;;20596;6817;306554;-79
2023/07/20 00:27:00;;;;;;;2.20;2.10;;;25.10;37.00;;;;;;20819;6815;117648;-79
2023/07/20 00:29:26;;;;;;;2.60;2.40;;;25.00;36.90;;;;;;20813;6816;119345;-79
2023/07/20 00:31:52;;;;;;;4.40;2.07;;;24.40;37.80;;;;;;20821;6816;117283;-79
2023/07/20 00:34:18;;;;;;;3.37;2.58;;;24.30;37.70;;;;;;20584;6816;277014;-79
2023/07/20 00:36:43;;;;;;;3.43;2.40;;;24.50;37.60;;;;;;20614;6816;306463;-79
2023/07/20 00:39:09;;;;;;;2.60;2.40;;;24.70;37.10;;;;;;20835;6816;116477;-79
2023/07/20 00:41:35;;;;;;;3.00;2.33;;;24.30;37.40;;;;;;20826;6816;116263;-79
2023/07/20 00:44:00;;;;;;;2.60;2.40;;;24.30;37.40;;;;;;20608;6816;308670;-79
2023/07/20 00:46:26;;;;;;;2.45;2.30;;;24.30;36.80;;;;;;20807;6816;117896;-79
2023/07/20 00:48:52;;;;;;;3.67;2.20;;;24.20;37.10;;;;;;20832;6816;117461;-79
2023/07/20 00:51:17;;;;;;;3.75;2.58;;;23.90;37.50;;;;;;20611;6816;277823;-79
2023/07/20 00:53:43;;;;;;;2.80;2.50;;;24.10;37.40;;;;;;20607;6816;277395;-79
2023/07/20 00:56:08;;;;;;;2.80;2.60;;;24.30;37.60;;;;;;20615;6816;276907;-79
2023/07/20 00:58:35;;;;;;;2.97;2.72;;;24.60;35.70;;;;;;20608;6816;306839;-79
2023/07/20 01:01:00;;;;;;;2.50;2.27;;;24.60;35.70;;;;;;20772;6816;117101;-79
2023/07/20 01:03:26;;;;;;;2.47;2.37;;;24.40;36.10;;;;;;20812;6817;117441;-79
2023/07/20 01:06:19;;;;;;;2.63;2.43;;;23.70;37.60;;;;;;20783;6817;116781;-79
2023/07/20 01:09:01;;;;;;;3.00;2.70;;;23.70;37.20;;;;;;20530;6817;306833;-79
2023/07/20 01:11:33;;;;;;;4.23;2.60;;;23.80;37.00;;;;;;20783;6817;117224;-79
2023/07/20 01:13:59;;;;;;;3.90;2.53;;;23.80;37.00;;;;;;20796;6817;118616;-79
2023/07/20 01:16:25;;;;;;;3.17;2.60;;;23.50;37.30;;;;;;20587;6817;306825;-79
2023/07/20 01:18:50;;;;;;;6.43;3.10;;;23.70;37.30;;;;;;20816;6817;123570;-79
2023/07/20 01:21:16;;;;;;;2.73;2.50;;;23.70;37.40;;;;;;20616;6817;276900;-79
2023/07/20 01:23:41;;;;;;;4.60;3.10;;;23.90;37.30;;;;;;20562;6817;337961;-79
2023/07/20 01:26:28;;;;;;;3.62;2.95;;;24.20;36.60;;;;;;20619;6817;281188;-79
2023/07/20 01:29:12;;;;;;;2.87;2.60;;;24.40;36.20;;;;;;20794;6817;120245;-79
2023/07/20 01:31:37;;;;;;;3.25;3.00;;;24.20;36.50;;;;;;20616;6817;338882;-79
2023/07/20 01:34:03;;;;;;;11.60;2.90;;;24.20;36.40;;;;;;20823;6817;120500;-79
2023/07/20 01:36:29;;;;;;;3.53;2.47;;;23.80;36.80;;;;;;20802;6817;120819;-79
2023/07/20 01:38:55;;;;;;;3.33;2.85;;;23.80;36.80;;;;;;20591;6815;337431;-79
2023/07/20 01:41:20;;;;;;;2.90;2.70;;;23.90;36.50;;;;;;20603;6816;306753;-79
2023/07/20 01:43:46;;;;;;;2.67;2.47;;;24.10;36.30;;;;;;20827;6816;119497;-79
2023/07/20 01:46:11;;;;;;;2.65;2.45;;;24.00;36.50;;;;;;20810;6816;117989;-79
2023/07/20 01:48:37;;;;;;;3.57;2.90;;;23.70;37.00;;;;;;20615;6816;295433;-79
2023/07/20 01:51:03;;;;;;;3.65;2.90;;;23.90;36.70;;;;;;20607;6816;336038;-79
2023/07/20 01:53:29;;;;;;;3.50;2.90;;;23.90;36.70;;;;;;20613;6816;306679;-79
2023/07/20 01:55:54;;;;;;;3.30;3.00;;;24.10;36.80;;;;;;20622;6816;277323;-79
2023/07/20 01:58:20;;;;;;;3.30;2.70;;;24.20;36.50;;;;;;20808;6816;122396;-79
2023/07/20 02:00:45;;;;;;;2.63;2.40;;;23.90;36.70;;;;;;20825;6816;117340;-79
2023/07/20 02:03:11;;;;;;;2.87;2.67;;;23.50;37.30;;;;;;20617;6816;276953;-79
2023/07/20 02:05:36;;;;;;;3.40;2.50;;;23.50;37.60;;;;;;20820;6816;117255;-78
2023/07/20 02:08:02;;;;;;;3.10;2.90;;;23.40;37.80;;;;;;20616;6816;281375;-79
2023/07/20 02:10:29;;;;;;;4.18;3.00;;;23.50;37.80;;;;;;20594;6816;276627;-79
2023/07/20 02:12:55;;;;;;;3.30;3.00;;;23.90;36.60;;;;;;20609;6816;311244;-79
2023/07/20 02:15:21;;;;;;;5.00;2.90;;;23.90;36.60;;;;;;20607;6817;310397;-79
2023/07/20 02:17:47;;;;;;;3.77;2.90;;;23.80;36.70;;;;;;20819;6817;123812;-79
2023/07/20 02:20:13;;;;;;;3.03;2.63;;;23.80;36.70;;;;;;20802;6817;117320;-79
2023/07/20 02:22:38;;;;;;;3.53;2.83;;;23.30;37.20;;;;;;20827;6817;119312;-79
2023/07/20 02:25:04;;;;;;;3.72;2.80;;;23.00;37.70;;;;;;20602;6817;281661;-79
2023/07/20 02:27:30;;;;;;;4.10;3.00;;;23.10;37.80;;;;;;20817;6817;116261;-79
2023/07/20 02:29:56;;;;;;;2.77;2.60;;;23.00;37.80;;;;;;20835;6817;123527;-79
2023/07/20 02:32:22;;;;;;;3.70;2.70;;;22.70;38.10;;;;;;20814;6817;119310;-79
2023/07/20 02:34:47;;;;;;;3.65;3.00;;;22.40;38.40;;;;;;20614;6817;339080;-79
2023/07/20 02:37:13;;;;;;;3.37;3.00;;;22.60;38.70;;;;;;20613;6817;277255;-79
2023/07/20 02:39:38;;;;;;;2.90;2.45;;;22.90;38.30;;;;;;20823;6817;116876;-79
2023/07/20 02:42:04;;;;;;;4.10;2.97;;;22.70;38.30;;;;;;20606;6817;277135;-79
2023/07/20 02:44:30;;;;;;;4.23;2.73;;;22.70;38.30;;;;;;20796;6817;117712;-79
2023/07/20 02:46:55;;;;;;;3.33;3.03;;;22.50;38.40;;;;;;20613;6817;305816;-79
2023/07/20 02:49:21;;;;;;;6.40;2.65;;;22.60;38.60;;;;;;20821;6815;123539;-79
2023/07/20 02:51:46;;;;;;;3.23;2.70;;;22.50;38.70;;;;;;20828;6816;121198;-79
2023/07/20 02:54:13;;;;;;;3.27;2.97;;;22.40;39.00;;;;;;20593;6816;314306;-79
2023/07/20 02:56:38;;;;;;;3.47;2.77;;;22.40;39.00;;;;;;20830;6816;123302;-78
2023/07/20 02:59:04;;;;;;;3.03;2.60;;;22.40;38.90;;;;;;20827;6816;119867;-79
2023/07/20 03:01:29;;;;;;;3.10;2.90;;;22.30;39.10;;;;;;20613;6816;306009;-79
2023/07/20 03:03:55;;;;;;;3.90;2.93;;;22.50;38.80;;;;;;20825;6816;120156;-79
2023/07/20 03:06:20;;;;;;;3.20;2.90;;;22.50;38.80;;;;;;20583;6816;310403;-78
2023/07/20 03:08:53;;;;;;;2.35;2.25;;;22.60;38.40;;;;;;20822;6816;117446;-79
2023/07/20 03:11:16;;;;;;;2.63;2.47;;;22.50;38.40;;;;;;20811;6816;116974;-79
2023/07/20 03:13:42;;;;;;;3.00;2.70;;;22.00;39.10;;;;;;20818;6816;117626;-79
2023/07/20 03:16:11;;;;;;;3.20;2.87;;;22.20;39.00;;;;;;20601;6816;306420;-83
2023/07/20 03:18:34;;;;;;;2.90;2.70;;;22.20;39.00;;;;;;20591;6816;318788;-76
2023/07/20 03:21:00;;;;;;;2.70;2.57;;;22.50;38.30;;;;;;20806;6816;119417;-75
2023/07/20 03:23:26;;;;;;;3.20;2.90;;;22.40;38.70;;;;;;20577;6816;306521;-74
2023/07/20 03:25:54;;;;;;;2.50;2.40;;;22.40;38.70;;;;;;20804;6816;117931;-73
2023/07/20 03:28:17;;;;;;;2.55;2.35;;;22.20;38.70;;;;;;20783;6817;129013;-74
2023/07/20 03:30:43;;;;;;;2.42;2.33;;;22.00;39.20;;;;;;20807;6817;117457;-74
2023/07/20 03:33:08;;;;;;;5.18;2.97;;;21.70;39.40;;;;;;20800;6817;119164;-73
2023/07/20 03:35:34;;;;;;;2.70;2.50;;;21.50;39.70;;;;;;20794;6817;119227;-74
2023/07/20 03:37:59;;;;;;;2.97;2.78;;;21.30;39.90;;;;;;20588;6817;306547;-74
2023/07/20 03:40:25;;;;;;;2.80;2.60;;;21.60;40.90;;;;;;20579;6817;306522;-74
2023/07/20 03:42:51;;;;;;;3.12;2.92;;;21.90;39.50;;;;;;20599;6817;307422;-75
2023/07/20 03:45:16;;;;;;;3.28;3.08;;;22.20;38.80;;;;;;20600;6817;306048;-75
2023/07/20 03:47:42;;;;;;;2.80;2.60;;;22.40;38.80;;;;;;20797;6817;117546;-74
2023/07/20 03:50:09;;;;;;;3.00;2.80;;;22.20;38.90;;;;;;20594;6817;295213;-74
2023/07/20 03:52:33;;;;;;;4.33;2.83;;;22.20;39.20;;;;;;20573;6817;281018;-76
2023/07/20 03:54:59;;;;;;;3.20;2.90;;;22.30;39.00;;;;;;20584;6817;319386;-79
2023/07/20 03:57:25;;;;;;;3.10;2.90;;;22.50;38.60;;;;;;20486;6817;306825;-79
2023/07/20 03:59:51;;;;;;;2.63;2.50;;;22.50;38.60;;;;;;20802;6815;117452;-73
2023/07/20 04:02:16;;;;;;;3.57;2.93;;;22.20;38.80;;;;;;20558;6816;340936;-73
2023/07/20 04:04:43;;;;;;;2.57;2.37;;;21.90;39.30;;;;;;20801;6816;123095;-74
2023/07/20 04:07:09;;;;;;;3.22;2.90;;;21.80;39.60;;;;;;20588;6816;305655;-74
2023/07/20 04:09:34;;;;;;;2.83;2.63;;;21.80;39.60;;;;;;20808;6816;119531;-76
2023/07/20 04:12:01;;;;;;;3.00;2.80;;;21.60;40.00;;;;;;20595;6816;319454;-74
2023/07/20 04:14:26;;;;;;;2.70;2.53;;;21.60;40.00;;;;;;20764;6816;123788;-75
2023/07/20 04:16:52;;;;;;;2.83;2.63;;;21.40;40.10;;;;;;20785;6816;119693;-75
2023/07/20 04:19:17;;;;;;;3.05;2.75;;;21.10;40.50;;;;;;20527;6816;309239;-75
2023/07/20 04:21:44;;;;;;;3.92;2.67;;;21.20;41.00;;;;;;20752;6816;122498;-77
2023/07/20 04:24:10;;;;;;;2.87;2.50;;;21.10;40.90;;;;;;20780;6816;120204;-77
2023/07/20 04:26:36;;;;;;;3.10;2.83;;;20.80;41.20;;;;;;20603;6816;307399;-74
2023/07/20 04:29:01;;;;;;;3.33;3.03;;;21.00;41.40;;;;;;20599;6816;306461;-75
2023/07/20 04:31:27;;;;;;;3.30;2.40;;;21.40;41.00;;;;;;20808;6816;117446;-77
2023/07/20 04:33:52;;;;;;;2.60;2.40;;;21.30;40.80;;;;;;20800;6816;117551;-76
2023/07/20 04:36:19;;;;;;;2.80;2.60;;;21.10;41.20;;;;;;20570;6816;282974;-73
2023/07/20 04:38:43;;;;;;;2.40;2.30;;;21.30;41.10;;;;;;20797;6817;119502;-75
2023/07/20 04:41:09;;;;;;;3.10;2.80;;;21.30;41.10;;;;;;20597;6817;277446;-74
2023/07/20 04:43:35;;;;;;;3.27;2.97;;;21.40;41.40;;;;;;20800;6817;120470;-74
2023/07/20 04:46:00;;;;;;;3.17;2.40;;;21.40;41.20;;;;;;20805;6817;118193;-75
2023/07/20 04:48:26;;;;;;;2.80;2.57;;;21.30;41.30;;;;;;20776;6817;122515;-74
2023/07/20 04:50:53;;;;;;;3.17;2.87;;;21.10;41.50;;;;;;20584;6817;306226;-74
2023/07/20 04:53:18;;;;;;;2.80;2.60;;;21.40;41.30;;;;;;20795;6817;116957;-74
2023/07/20 04:55:52;;;;;;;2.77;2.50;;;21.50;41.30;;;;;;20583;6817;340914;-76
2023/07/20 04:58:20;;;;;;;2.50;2.40;;;21.80;40.80;;;;;;20789;6817;117732;-77
2023/07/20 05:00:46;;;;;;;3.83;2.60;;;22.10;40.80;;;;;;20586;6817;280477;-75
2023/07/20 05:03:12;;;;;;;3.77;2.60;;;22.00;40.70;;;;;;20578;6817;278840;-75
2023/07/20 05:05:38;;;;;;;2.80;2.60;;;22.40;39.90;;;;;;20583;6817;308502;-75
2023/07/20 05:08:03;;;;;;;2.90;2.70;;;22.70;39.50;;;;;;20576;6817;306381;-73
2023/07/20 05:10:29;;;;;;;3.20;2.40;;;23.00;39.10;;;;;;20774;6817;119706;-78
2023/07/20 05:12:55;;;;;;;2.53;2.33;;;22.60;39.70;;;;;;20795;6815;117768;-77
2023/07/20 05:15:21;;;;;;;2.80;2.60;;;22.60;39.70;;;;;;20589;6816;335133;-77
2023/07/20 05:17:48;;;;;;;3.87;2.53;;;22.80;39.90;;;;;;20586;6816;335322;-78
2023/07/20 05:20:13;;;;;;;4.33;2.50;;;23.10;39.70;;;;;;20744;6816;119975;-75
2023/07/20 05:22:40;;;;;;;3.87;2.30;;;22.90;40.00;;;;;;20804;6816;117116;-78
2023/07/20 05:25:08;;;;;;;2.50;2.30;;;22.90;40.00;;;;;;20752;6816;117462;-78
2023/07/20 05:27:35;;;;;;;5.23;2.60;;;22.70;41.20;;;;;;20793;6816;118435;-74
2023/07/20 05:30:00;;;;;;;2.73;2.60;;;22.60;40.40;;;;;;20791;6816;117094;-75
2023/07/20 05:32:26;;;;;;;2.80;2.20;;;22.60;40.70;;;;;;20772;6816;119066;-75
2023/07/20 05:34:51;;;;;;;2.67;2.47;;;22.50;40.70;;;;;;20590;6816;276554;-75
2023/07/20 05:37:17;;;;;;;5.78;2.15;;;22.80;40.20;;;;;;20793;6816;116968;-77
2023/07/20 05:39:42;;;;;;;2.63;2.43;;;23.00;40.30;;;;;;20802;6816;117825;-76
2023/07/20 05:42:08;;;;;;;2.80;2.60;;;22.90;40.50;;;;;;20591;6816;291146;-76
2023/07/20 05:44:34;;;;;;;3.77;2.70;;;23.20;40.60;;;;;;20573;6816;307206;-77
2023/07/20 05:46:59;;;;;;;3.70;2.57;;;23.60;40.60;;;;;;20588;6816;306636;-77
2023/07/20 05:49:26;;;;;;;2.30;2.20;;;23.90;40.20;;;;;;20805;6816;122354;-75
2023/07/20 05:51:51;;;;;;;7.07;2.80;;;23.80;40.10;;;;;;20800;6817;117224;-76
2023/07/20 05:54:17;;;;;;;2.50;2.30;;;23.60;40.30;;;;;;20783;6817;117468;-77
2023/07/20 05:56:42;;;;;;;2.40;2.20;;;23.40;40.60;;;;;;20803;6817;120273;-76
2023/07/20 05:59:08;;;;;;;2.73;2.50;;;23.30;40.80;;;;;;20808;6817;121912;-73
2023/07/20 06:01:33;;;;;;;3.10;2.90;;;23.20;41.10;;;;;;20809;6817;118234;-74
2023/07/20 06:03:59;;;;;;;3.97;2.73;;;23.20;41.70;;;;;;20802;6817;120208;-74
2023/07/20 06:06:25;;;;;;;2.90;2.67;;;23.10;41.90;;;;;;20781;6817;118228;-74
2023/07/20 06:08:51;;;;;;;3.42;3.20;;;23.10;41.90;;;;;;20591;6817;306894;-74
2023/07/20 06:11:17;;;;;;;3.55;3.12;;;23.40;42.00;;;;;;20602;6817;306550;-74
2023/07/20 06:13:43;;;;;;;5.43;3.00;;;23.80;41.60;;;;;;20814;6817;117273;-74
2023/07/20 06:16:07;;;;;;;3.60;3.05;;;23.90;41.40;;;;;;20570;6817;277362;-74
2023/07/20 06:18:34;;;;;;;3.37;3.10;;;24.40;39.40;;;;;;20574;6817;336458;-74
2023/07/20 06:20:59;;;;;;;4.17;2.40;;;24.40;39.40;;;;;;20799;6817;120634;-74
2023/07/20 06:23:26;;;;;;;3.67;3.00;;;24.50;40.20;;;;;;20599;6815;310691;-74
2023/07/20 06:25:51;;;;;;;3.53;2.77;;;24.50;39.60;;;;;;20596;6816;276667;-74
2023/07/20 06:28:18;;;;;;;4.95;2.70;;;24.70;39.20;;;;;;20782;6816;122202;-74
2023/07/20 06:30:43;;;;;;;4.50;2.63;;;24.70;39.10;;;;;;20799;6816;123798;-74
2023/07/20 06:33:09;;;;;;;6.00;3.20;;;24.50;39.40;;;;;;20593;6816;281987;-74
2023/07/20 06:35:34;;;;;;;3.57;2.80;;;24.70;39.20;;;;;;20591;6816;337658;-74
2023/07/20 06:38:00;;;;;;;3.07;2.90;;;25.10;38.60;;;;;;20585;6816;306187;-74
2023/07/20 06:40:25;;;;;;;3.40;3.10;;;25.50;38.10;;;;;;20573;6816;277379;-74
2023/07/20 06:42:51;;;;;;;3.13;2.93;;;25.80;37.40;;;;;;20597;6816;307080;-74
2023/07/20 06:45:23;;;;;;;3.40;3.10;;;26.00;37.20;;;;;;20582;6816;280072;-73
2023/07/20 06:47:48;;;;;;;4.80;2.70;;;26.20;37.00;;;;;;20792;6816;117293;-74
2023/07/20 06:50:14;;;;;;;3.47;3.17;;;26.10;37.10;;;;;;20785;6816;120754;-73
2023/07/20 06:52:40;;;;;;;4.37;2.63;;;25.90;37.40;;;;;;20806;6816;117127;-74
2023/07/20 06:55:06;;;;;;;3.75;2.90;;;25.70;37.50;;;;;;20589;6816;306169;-75
2023/07/20 06:57:31;;;;;;;3.93;2.80;;;25.90;36.60;;;;;;20802;6816;117907;-75
2023/07/20 06:59:57;;;;;;;2.93;2.47;;;26.00;36.90;;;;;;20808;6816;117198;-74
2023/07/20 07:02:23;;;;;;;3.10;2.80;;;26.10;37.50;;;;;;20779;6817;117019;-73
2023/07/20 07:04:49;;;;;;;2.92;2.60;;;26.00;37.40;;;;;;20593;6817;284735;-74
2023/07/20 07:07:14;;;;;;;3.75;3.10;;;26.50;36.90;;;;;;20594;6817;311253;-73
2023/07/20 07:09:40;;;;;;;3.50;2.80;;;26.90;35.70;;;;;;20801;6817;120670;-73
2023/07/20 07:12:07;;;;;;;3.80;2.90;;;26.90;35.90;;;;;;20592;6817;308223;-74
2023/07/20 07:14:33;;;;;;;3.12;2.92;;;27.10;35.40;;;;;;20572;6817;276806;-74
2023/07/20 07:16:58;;;;;;;4.77;2.80;;;27.30;34.80;;;;;;20587;6817;277188;-74
2023/07/20 07:19:24;;;;;;;3.20;2.90;;;27.50;34.70;;;;;;20798;6817;117654;-74
2023/07/20 07:21:49;;;;;;;3.50;2.90;;;27.40;35.00;;;;;;20581;6817;306563;-74
2023/07/20 07:24:15;;;;;;;3.80;3.07;;;27.40;34.80;;;;;;20568;6817;305687;-74
2023/07/20 07:26:40;;;;;;;3.15;2.83;;;27.60;34.70;;;;;;20595;6817;311085;-74
2023/07/20 07:29:06;;;;;;;3.57;3.00;;;27.70;34.70;;;;;;20589;6817;306433;-74
2023/07/20 07:31:31;;;;;;;5.00;3.03;;;27.80;34.20;;;;;;20594;6817;281561;-74
2023/07/20 07:33:57;;;;;;;3.30;3.10;;;27.90;34.10;;;;;;20579;6817;306476;-74
2023/07/20 07:36:25;;;;;;;3.00;2.70;;;27.90;33.80;;;;;;20791;6815;117183;-74
2023/07/20 07:38:48;;;;;;;3.30;3.08;;;27.80;34.30;;;;;;20592;6816;306442;-74
2023/07/20 07:41:14;;;;;;;2.70;2.50;;;27.60;35.10;;;;;;20813;6816;117172;-74
2023/07/20 07:43:41;;;;;;;4.20;2.80;;;27.60;35.10;;;;;;20597;6816;308000;-74
2023/07/20 07:46:07;;;;;;;3.70;2.70;;;27.70;34.50;;;;;;20599;6816;313208;-75
2023/07/20 07:48:32;;;;;;;3.75;2.70;;;28.00;34.50;;;;;;20582;6816;314256;-74
2023/07/20 07:50:58;;;;;;;2.80;2.50;;;28.30;33.90;;;;;;20599;6816;324949;-74
2023/07/20 07:53:25;;;;;;;5.53;2.63;;;28.60;32.90;;;;;;20803;6816;117151;-74
2023/07/20 07:55:49;;;;;;;4.82;2.65;;;28.60;33.30;;;;;;20583;6816;305520;-74
2023/07/20 07:58:15;;;;;;;4.50;2.20;;;28.90;33.40;;;;;;20781;6816;148916;-75
2023/07/20 08:00:40;;;;;;;7.67;2.93;;;29.00;33.70;;;;;;20811;6816;117573;-75
2023/07/20 08:03:07;;;;;;;4.10;2.50;;;29.40;32.30;;;;;;20597;6816;281553;-74
2023/07/20 08:05:32;;;;;;;2.80;2.47;;;29.30;32.10;;;;;;20589;6816;276739;-74
2023/07/20 08:07:58;;;;;;;4.37;2.97;;;29.70;31.80;;;;;;20588;6816;306413;-74
2023/07/20 08:10:23;;;;;;;2.97;2.47;;;30.00;31.00;;;;;;20789;6816;117650;-75
2023/07/20 08:12:49;;;;;;;4.03;2.67;;;29.80;31.50;;;;;;20804;6817;121229;-74
2023/07/20 08:15:14;;;;;;;4.63;2.83;;;29.50;31.80;;;;;;20805;6817;117032;-76
2023/07/20 08:17:48;;;;;;;5.33;3.20;;;29.30;32.30;;;;;;20797;6817;117777;-74
2023/07/20 08:20:12;;;;;;;4.23;2.97;;;29.10;32.40;;;;;;20785;6817;120034;-73
2023/07/20 08:22:37;;;;;;;3.00;2.70;;;28.90;32.30;;;;;;20572;6817;310962;-76
2023/07/20 08:25:04;;;;;;;6.10;2.60;;;29.70;32.00;;;;;;20587;6817;336279;-74
2023/07/20 08:27:29;;;;;;;3.33;2.40;;;29.70;32.00;;;;;;20802;6817;117351;-73
2023/07/20 08:29:55;;;;;;;2.90;2.67;;;29.80;31.70;;;;;;20805;6817;117799;-73
2023/07/20 08:32:21;;;;;;;3.00;2.70;;;29.80;31.00;;;;;;20572;6817;311435;-73
2023/07/20 08:34:47;;;;;;;2.85;2.62;;;29.80;31.00;;;;;;20592;6817;336463;-74
2023/07/20 08:37:12;;;;;;;3.95;2.90;;;30.10;30.00;;;;;;20599;6817;277520;-74
2023/07/20 08:39:38;;;;;;;2.87;2.67;;;30.50;29.60;;;;;;20801;6817;117017;-74
2023/07/20 08:42:05;;;;;;;3.60;2.50;;;30.30;29.80;;;;;;20592;6817;305563;-74
2023/07/20 08:44:29;;;;;;;3.03;2.27;;;30.40;29.90;;;;;;20783;6817;117814;-73
2023/07/20 08:46:55;;;;;;;2.47;2.28;;;30.30;30.60;;;;;;20586;6815;304612;-74
2023/07/20 08:49:21;;;;;;;2.87;2.57;;;30.80;28.70;;;;;;20599;6816;309047;-74
2023/07/20 08:51:47;;;;;;;7.20;2.90;;;30.80;29.00;;;;;;20811;6816;117169;-74
2023/07/20 08:54:12;;;;;;;4.73;2.47;;;30.80;29.30;;;;;;20774;6816;117134;-74
2023/07/20 08:56:38;;;;;;;4.37;2.80;;;30.70;29.60;;;;;;20594;6816;276633;-74
2023/07/20 08:59:04;;;;;;;2.80;2.60;;;31.00;29.50;;;;;;20803;6816;117251;-74
2023/07/20 09:01:30;;;;;;;2.97;2.77;;;31.30;28.60;;;;;;20590;6816;282029;-74
2023/07/20 09:03:55;;;;;;;4.40;2.60;;;31.30;28.60;;;;;;20804;6816;117458;-74
2023/07/20 09:06:21;;;;;;;4.43;2.60;;;31.40;29.00;;;;;;20574;6816;277526;-74
2023/07/20 09:08:46;;;;;;;3.40;2.70;;;31.40;29.00;;;;;;20811;6816;119997;-75
2023/07/20 09:11:13;;;;;;;4.17;2.50;;;31.40;29.00;;;;;;20805;6816;120926;-75
2023/07/20 09:13:39;;;;;;;2.70;2.47;;;31.30;29.00;;;;;;20807;6816;123283;-75
2023/07/20 09:16:05;;;;;;;3.20;2.40;;;31.40;28.80;;;;;;20593;6816;306565;-77
2023/07/20 09:18:31;;;;;;;3.03;2.70;;;31.40;28.70;;;;;;20787;6816;119879;-78
2023/07/20 09:21:03;;;;;;;3.23;2.47;;;31.70;28.80;;;;;;20807;6816;119570;-75
2023/07/20 09:23:32;;;;;;;2.40;2.30;;;31.70;28.60;;;;;;20576;6816;336315;-75
2023/07/20 09:25:57;;;;;;;2.53;2.33;;;31.90;27.20;;;;;;20801;6817;122552;-75
2023/07/20 09:28:23;;;;;;;2.72;2.40;;;32.00;27.50;;;;;;20575;6817;307981;-75
2023/07/20 09:30:48;;;;;;;4.80;2.23;;;32.20;28.80;;;;;;20801;6817;120076;-76
2023/07/20 09:33:24;;;;;;;2.40;2.30;;;32.40;28.00;;;;;;20813;6817;117324;-75
2023/07/20 09:35:49;;;;;;;2.75;2.30;;;32.30;27.50;;;;;;20589;6817;306882;-78
2023/07/20 09:38:15;;;;;;;2.50;2.30;;;32.40;26.20;;;;;;20585;6817;277480;-74
2023/07/20 09:40:41;;;;;;;2.40;2.20;;;32.50;26.40;;;;;;20813;6817;117232;-75
2023/07/20 09:43:09;;;;;;;2.50;2.30;;;32.50;26.70;;;;;;20582;6817;311330;-76
2023/07/20 09:45:41;;;;;;;4.30;2.93;;;32.40;26.60;;;;;;20796;6817;119233;-74
2023/07/20 09:48:07;;;;;;;2.67;2.23;;;32.30;27.00;;;;;;20800;6817;123129;-74
2023/07/20 09:50:33;;;;;;;7.93;2.60;;;32.10;27.20;;;;;;20782;6817;120940;-75
2023/07/20 09:52:58;;;;;;;3.30;2.40;;;31.80;27.30;;;;;;20589;6817;306925;-74
2023/07/20 09:55:24;;;;;;;2.77;2.50;;;31.80;26.70;;;;;;20789;6817;122423;-75
2023/07/20 09:57:49;;;;;;;2.87;2.67;;;31.50;26.90;;;;;;20796;6815;117019;-75
2023/07/20 10:00:16;;;;;;;2.85;2.35;;;31.10;27.30;;;;;;20568;6816;340616;-74
2023/07/20 10:02:44;;;;;;;2.27;2.10;;;31.10;27.90;;;;;;20795;6816;117208;-75
2023/07/20 10:05:10;;;;;;;3.67;2.23;;;31.10;28.10;;;;;;20813;6816;119547;-74
2023/07/20 10:07:35;;;;;;;2.73;2.30;;;31.10;27.90;;;;;;20550;6816;307241;-75
2023/07/20 10:10:01;;;;;;;2.87;2.03;;;31.40;27.30;;;;;;20806;6816;119870;-77
2023/07/20 10:12:28;;;;;;;1.83;1.73;;;31.50;27.90;;;;;;20796;6816;120362;-75
2023/07/20 10:14:58;;;;;;;2.13;1.97;;;31.40;27.10;;;;;;20592;6816;306450;-77
2023/07/20 10:17:24;;;;;;;4.53;2.03;;;31.40;25.90;;;;;;20778;6816;118359;-77
2023/07/20 10:19:49;;;;;;;3.30;1.80;;;31.10;26.50;;;;;;20797;6816;119717;-74
2023/07/20 10:22:17;;;;;;;2.12;1.92;;;30.70;26.90;;;;;;20579;6816;277134;-76
2023/07/20 10:24:44;;;;;;;2.25;2.05;;;30.60;26.20;;;;;;20601;6816;341814;-78
2023/07/20 10:27:09;;;;;;;2.23;2.03;;;30.70;25.60;;;;;;20602;6816;277369;-76
2023/07/20 10:29:35;;;;;;;3.83;1.97;;;30.80;25.60;;;;;;20822;6816;118140;-77
2023/07/20 10:32:00;;;;;;;2.00;1.83;;;30.60;26.30;;;;;;20803;6816;117281;-76
2023/07/20 10:34:26;;;;;;;2.37;2.17;;;30.40;26.50;;;;;;20583;6816;277234;-77
2023/07/20 10:36:54;;;;;;;2.00;1.90;;;30.50;25.60;;;;;;20810;6817;122090;-78
2023/07/20 10:39:22;;;;;;;2.90;1.73;;;30.30;26.00;;;;;;20800;6817;120243;-77
2023/07/20 10:41:48;;;;;;;2.07;1.60;;;30.20;27.00;;;;;;20788;6817;117367;-78
2023/07/20 10:44:14;;;;;;;2.00;1.90;;;30.50;25.60;;;;;;20557;6817;306805;-77
2023/07/20 10:46:40;;;;;;;1.92;1.80;;;30.50;25.60;;;;;;20565;6817;339041;-76
2023/07/20 10:49:05;;;;;;;2.57;1.80;;;30.80;25.00;;;;;;20584;6817;310151;-78
2023/07/20 10:51:46;;;;;;;2.03;1.93;;;31.10;25.30;;;;;;20792;6817;117024;-76
2023/07/20 10:54:17;;;;;;;1.97;1.87;;;30.90;25.50;;;;;;20781;6817;121013;-76
2023/07/20 10:56:43;;;;;;;2.10;1.90;;;30.60;25.70;;;;;;20802;6817;117437;-75
2023/07/20 10:59:25;;;;;;;1.60;1.50;;;30.30;26.30;;;;;;20800;6817;117240;-75
2023/07/20 11:01:50;;;;;;;1.90;1.80;;;30.40;26.50;;;;;;20292;6817;116993;-77
2023/07/20 11:04:18;;;;;;;1.90;1.80;;;30.50;26.00;;;;;;20386;6832;312242;-76
2023/07/20 11:06:45;;;;;;;1.83;1.60;;;30.80;24.20;;;;;;20551;6817;335518;-76
2023/07/20 11:09:16;;;;;;;1.93;1.83;;;31.20;24.60;;;;;;20728;6817;117200;-76
2023/07/20 11:11:45;;;;;;;2.00;1.90;;;31.20;24.80;;;;;;20579;6815;302628;-76
2023/07/20 11:14:11;;;;;;;1.73;1.63;;;31.20;25.20;;;;;;20739;6816;145810;-77
2023/07/20 11:16:40;;;;;;;2.10;2.00;;;31.10;25.20;;;;;;20530;6816;306436;-76
2023/07/20 11:19:06;;;;;;;2.67;1.80;;;31.40;25.20;;;;;;20527;6831;336854;-76
2023/07/20 11:21:35;;;;;;;3.73;1.47;;;31.40;25.00;;;;;;20761;6816;115980;-76
2023/07/20 11:24:00;;;;;;;2.67;1.80;;;31.40;25.10;;;;;;20781;6816;117631;-76
2023/07/20 11:26:26;;;;;;;1.80;1.70;;;31.30;25.10;;;;;;20543;6816;282824;-76
2023/07/20 11:28:52;;;;;;;2.62;1.90;;;31.70;24.60;;;;;;20568;6816;339383;-77
2023/07/20 11:31:18;;;;;;;1.90;1.70;;;31.70;24.60;;;;;;20775;6816;119057;-76
2023/07/20 11:33:44;;;;;;;2.43;1.73;;;31.80;24.80;;;;;;20553;6816;306879;-76
2023/07/20 11:36:10;;;;;;;1.70;1.60;;;31.70;24.70;;;;;;20566;6816;308018;-78
2023/07/20 11:38:36;;;;;;;1.70;1.60;;;32.10;23.20;;;;;;20425;6816;278838;-76
2023/07/20 11:41:04;;;;;;;1.77;1.60;;;32.40;23.10;;;;;;20782;6816;117011;-76
2023/07/20 11:43:30;;;;;;;2.50;1.60;;;32.40;23.70;;;;;;20797;6816;119702;-76
2023/07/20 11:45:58;;;;;;;1.40;1.40;;;32.20;24.10;;;;;;20789;6816;117627;-76
2023/07/20 11:48:24;;;;;;;2.30;1.90;;;32.00;24.10;;;;;;20562;6817;307367;-76
2023/07/20 11:50:49;;;;;;;3.53;1.80;;;32.00;23.10;;;;;;20568;6817;335421;-76
2023/07/20 11:53:16;;;;;;;1.53;1.50;;;32.00;24.30;;;;;;20780;6817;119844;-76
2023/07/20 11:55:41;;;;;;;3.07;1.60;;;31.90;24.20;;;;;;20780;6817;119435;-76
2023/07/20 11:58:07;;;;;;;2.22;1.62;;;31.80;24.50;;;;;;20558;6817;306032;-76
2023/07/20 12:00:33;;;;;;;1.97;1.80;;;32.10;24.20;;;;;;20565;6817;276656;-78
2023/07/20 12:02:59;;;;;;;3.70;1.90;;;32.10;24.10;;;;;;20800;6817;121309;-76
2023/07/20 12:05:25;;;;;;;1.90;1.80;;;32.20;24.30;;;;;;20802;6817;117726;-78
2023/07/20 12:07:53;;;;;;;1.90;1.80;;;32.00;24.60;;;;;;20809;6817;119931;-76
2023/07/20 12:10:26;;;;;;;2.77;1.83;;;31.80;24.60;;;;;;20578;6817;278705;-76
2023/07/20 12:12:51;;;;;;;2.25;1.80;;;31.90;24.20;;;;;;20575;6817;318040;-78
2023/07/20 12:15:22;;;;;;;1.87;1.77;;;32.10;24.00;;;;;;20598;6817;307038;-80
2023/07/20 12:17:51;;;;;;;1.93;1.80;;;32.40;23.70;;;;;;20787;6817;119980;-77
2023/07/20 12:20:30;;;;;;;2.60;1.60;;;32.30;24.00;;;;;;20749;6817;117033;-79
2023/07/20 12:22:59;;;;;;;1.77;1.62;;;32.20;22.40;;;;;;20579;6815;309717;-77
2023/07/20 12:25:32;;;;;;;1.70;1.60;;;32.20;22.30;;;;;;20745;6816;117616;-77
2023/07/20 12:27:57;;;;;;;1.50;1.50;;;32.20;23.10;;;;;;20706;6816;119694;-77
2023/07/20 12:30:23;;;;;;;1.70;1.60;;;32.00;23.40;;;;;;20724;6816;121319;-76